To NAV CANADA Home Page Login to a new session Search on AWWS site Feedback and Comments Disclaimer Vers la page française équivalente Tips FAQ What's new on the site To the Forecasts and Observations / NOTAM section To "File a Flight Plan" website Publications and other links Update of the User's profile FIC Telephone Numbers My Weather Data Folder Route Weather Data Regional Weather Data Local Weather Data To the Forecasts and Observations / NOTAM section
Request Generated 08/31/2015 at 23:44:59 UTC . Weather information available at that time is displayed.

METAR/TAF

GANDER/GANDER INTL/NL    

METAR CYQX 312300Z 19014KT 20SM FEW028 BKN190 BKN230 OVC260 19/16
A2972 RMK SC1AC4CS1CI2 SLP065 DENSITY ALT 1200FT=
METAR CYQX 312200Z 19012KT 20SM FEW028 FEW042 BKN190 BKN250 20/16
A2973 RMK CU1SC1AC3CI2 SLP068 DENSITY ALT 1300FT=
METAR CYQX 312100Z 21012G21KT 15SM FEW028 SCT042 BKN084 BKN190 BKN260
20/15 A2973 RMK CU2SC1AC2AC1CI1 SLP070 DENSITY ALT 1400FT=

TAF CYQX 312338Z 0100/0124 20012KT P6SM SCT030 BKN080 TEMPO 0100/0105
BKN020 OVC080
FM010800 18012KT 5SM -SHRA BR BKN015
FM011800 VRB03KT 3SM -RA BR OVC008
FM012100 04012G22KT 3/4SM -RA BR OVC003
RMK NXT FCST BY 010600Z=
Your time UTC time
Weather data provided by Environment Canada and NAV CANADA